Aviation Digital Data Service (ADDS)

Output produced by TAFs form (0214 UTC 18 January 2018)
found at http://www.aviationweather.gov/adds/tafs/
 
KAPA 180153Z 13007KT 10SM CLR 01/M13 A3027 RMK AO2 SLP296 T00111128 $
KAPA 172333Z 1800/1824 12006KT P6SM SKC 
     FM180200 18006KT P6SM SKC 
     FM181500 23007KT P6SM SCT200 
     FM181900 10007KT P6SM BKN200